Time,TemperatureF,DewpointF,PressureIn,WindDirection,WindDirectionDegrees,WindSpeedMPH,WindSpeedGustMPH,Humidity,HourlyPrecipIn,Conditions,Clouds,dailyrainin,SolarRadiationWatts/m^2,SoftwareType,DateUTC
2014-12-27 00:02:00,36.4,36.4,29.95,SE,138,1.0,-999.0,100,0.00,,,0.00,0,WeatherHawk,2014-12-27 06:02:00,
2014-12-27 00:11:00,36.7,36.7,29.95,SSE,163,0.0,-999.0,100,0.00,,,0.00,1,WeatherHawk,2014-12-27 06:11:00,
2014-12-27 00:16:00,35.9,35.9,29.95,ESE,118,0.0,-999.0,100,0.00,,,0.00,0,WeatherHawk,2014-12-27 06:16:00,
2014-12-27 00:22:00,36.7,36.7,29.94,ESE,118,0.0,-999.0,100,0.00,,,0.00,0,WeatherHawk,2014-12-27 06:22:00,
2014-12-27 00:27:00,37.3,37.3,29.93,ESE,104,1.0,-999.0,100,0.00,,,0.00,1,WeatherHawk,2014-12-27 06:27:00,
2014-12-27 00:32:00,36.6,36.6,29.94,East,80,0.0,-999.0,100,0.00,,,0.00,0,WeatherHawk,2014-12-27 06:32:00,
2014-12-27 00:37:00,36.5,36.5,29.93,ESE,104,0.0,-999.0,100,0.00,,,0.00,0,WeatherHawk,2014-12-27 06:37:00,
2014-12-27 00:42:00,36.4,36.4,29.93,SE,133,0.0,-999.0,100,0.00,,,0.00,1,WeatherHawk,2014-12-27 06:42:00,
2014-12-27 00:52:00,36.7,36.7,29.94,ESE,105,0.0,-999.0,100,0.00,,,0.00,0,WeatherHawk,2014-12-27 06:52:00,
2014-12-27 00:57:00,36.9,36.9,29.93,SE,126,0.0,-999.0,100,0.00,,,0.00,0,WeatherHawk,2014-12-27 06:57:00,
2014-12-27 01:02:00,36.5,36.5,29.94,SE,126,0.0,-999.0,100,0.00,,,0.00,0,WeatherHawk,2014-12-27 07:02:00,
2014-12-27 01:11:00,36.2,35.7,29.94,ESE,118,0.0,-999.0,98,0.00,,,0.00,0,WeatherHawk,2014-12-27 07:11:00,
2014-12-27 01:16:00,36.2,35.7,29.93,ESE,118,0.0,-999.0,98,0.00,,,0.00,0,WeatherHawk,2014-12-27 07:16:00,
2014-12-27 01:22:00,36.2,35.4,29.92,ESE,118,0.0,-999.0,97,0.00,,,0.00,0,WeatherHawk,2014-12-27 07:22:00,
2014-12-27 01:31:00,36.0,35.2,29.93,ESE,118,0.0,-999.0,97,0.00,,,0.00,0,WeatherHawk,2014-12-27 07:31:00,
2014-12-27 01:37:00,36.1,35.6,29.94,ESE,118,0.0,-999.0,98,0.00,,,0.00,0,WeatherHawk,2014-12-27 07:37:00,
2014-12-27 01:46:00,37.1,37.1,29.93,ENE,73,0.0,-999.0,100,0.00,,,0.00,0,WeatherHawk,2014-12-27 07:46:00,
2014-12-27 01:51:00,37.0,37.0,29.93,ENE,73,0.0,-999.0,100,0.00,,,0.00,0,WeatherHawk,2014-12-27 07:51:00,
2014-12-27 01:57:00,36.1,35.6,29.94,ENE,73,0.0,-999.0,98,0.00,,,0.00,0,WeatherHawk,2014-12-27 07:57:00,
2014-12-27 02:02:00,36.2,35.5,29.94,ENE,73,0.0,-999.0,97,0.00,,,0.00,1,WeatherHawk,2014-12-27 08:02:00,
2014-12-27 02:11:00,36.5,35.9,29.94,ENE,73,0.0,-999.0,98,0.00,,,0.00,0,WeatherHawk,2014-12-27 08:11:00,
2014-12-27 02:17:00,36.5,36.0,29.93,ENE,73,0.0,-999.0,98,0.00,,,0.00,0,WeatherHawk,2014-12-27 08:17:00,
2014-12-27 02:26:00,36.6,36.6,29.94,ENE,73,0.0,-999.0,100,0.00,,,0.00,0,WeatherHawk,2014-12-27 08:26:00,
2014-12-27 02:31:00,36.9,36.9,29.93,ENE,73,0.0,-999.0,100,0.00,,,0.00,0,WeatherHawk,2014-12-27 08:31:00,
2014-12-27 02:36:00,36.9,36.9,29.93,ENE,73,0.0,-999.0,100,0.00,,,0.00,0,WeatherHawk,2014-12-27 08:36:00,
2014-12-27 02:42:00,36.9,36.9,29.92,ENE,58,0.0,-999.0,100,0.00,,,0.00,0,WeatherHawk,2014-12-27 08:42:00,
2014-12-27 02:51:00,36.4,36.4,29.91,ENE,58,0.0,-999.0,100,0.00,,,0.00,0,WeatherHawk,2014-12-27 08:51:00,
2014-12-27 02:56:00,36.2,36.2,29.92,ENE,58,0.0,-999.0,100,0.00,,,0.00,0,WeatherHawk,2014-12-27 08:56:00,
2014-12-27 03:01:00,36.4,36.4,29.92,NNW,341,0.0,-999.0,100,0.00,,,0.00,0,WeatherHawk,2014-12-27 09:01:00,
2014-12-27 03:06:00,36.6,36.6,29.91,NNE,19,0.0,-999.0,100,0.00,,,0.00,0,WeatherHawk,2014-12-27 09:06:00,
2014-12-27 03:12:00,36.5,36.5,29.91,NNE,19,0.0,-999.0,100,0.00,,,0.00,0,WeatherHawk,2014-12-27 09:12:00,
2014-12-27 03:21:00,36.6,36.6,29.91,NNE,19,0.0,-999.0,100,0.00,,,0.00,1,WeatherHawk,2014-12-27 09:21:00,
2014-12-27 03:26:00,36.7,36.7,29.90,NE,52,1.0,-999.0,100,0.00,,,0.00,0,WeatherHawk,2014-12-27 09:26:00,
2014-12-27 03:31:00,36.6,36.6,29.89,ENE,69,2.0,-999.0,100,0.00,,,0.00,0,WeatherHawk,2014-12-27 09:31:00,
2014-12-27 03:36:00,37.3,37.3,29.89,East,97,0.0,-999.0,100,0.00,,,0.00,0,WeatherHawk,2014-12-27 09:36:00,
2014-12-27 03:41:00,37.9,37.9,29.89,East,81,1.0,-999.0,100,0.00,,,0.00,0,WeatherHawk,2014-12-27 09:41:00,
2014-12-27 03:46:00,38.2,38.2,29.87,East,100,3.0,-999.0,100,0.00,,,0.00,0,WeatherHawk,2014-12-27 09:46:00,
2014-12-27 03:51:00,38.3,38.3,29.89,SSE,164,0.0,-999.0,100,0.00,,,0.00,0,WeatherHawk,2014-12-27 09:51:00,
2014-12-27 03:56:00,38.5,38.5,29.90,SW,217,0.0,-999.0,100,0.00,,,0.00,0,WeatherHawk,2014-12-27 09:56:00,
2014-12-27 04:01:00,38.3,38.3,29.89,SSE,168,3.0,-999.0,100,0.00,,,0.00,0,WeatherHawk,2014-12-27 10:01:00,
2014-12-27 04:06:00,38.3,38.3,29.90,SSE,156,3.0,-999.0,100,0.00,,,0.00,0,WeatherHawk,2014-12-27 10:06:00,
2014-12-27 04:17:00,38.1,38.1,29.90,SSE,158,4.0,-999.0,100,0.00,,,0.00,0,WeatherHawk,2014-12-27 10:17:00,
2014-12-27 04:27:00,38.0,38.0,29.90,SSE,160,2.0,-999.0,100,0.00,,,0.00,1,WeatherHawk,2014-12-27 10:27:00,
2014-12-27 04:36:00,38.1,38.1,29.89,SE,144,0.0,-999.0,100,0.00,,,0.00,0,WeatherHawk,2014-12-27 10:36:00,
2014-12-27 04:41:00,38.6,38.6,29.88,SE,144,1.0,-999.0,100,0.00,,,0.00,0,WeatherHawk,2014-12-27 10:41:00,
2014-12-27 04:47:00,38.8,38.8,29.89,SSE,156,1.0,-999.0,100,0.00,,,0.00,0,WeatherHawk,2014-12-27 10:47:00,
2014-12-27 04:57:00,39.1,39.1,29.88,SSE,157,0.0,-999.0,100,0.00,,,0.00,0,WeatherHawk,2014-12-27 10:57:00,
2014-12-27 05:02:00,39.4,39.4,29.88,SSE,162,3.0,-999.0,100,0.00,,,0.00,0,WeatherHawk,2014-12-27 11:02:00,
2014-12-27 05:12:00,40.3,40.3,29.88,South,171,3.0,-999.0,100,0.00,,,0.00,0,WeatherHawk,2014-12-27 11:12:00,
2014-12-27 05:21:00,41.4,41.4,29.88,South,174,9.0,-999.0,100,0.00,,,0.00,0,WeatherHawk,2014-12-27 11:21:00,
2014-12-27 05:31:00,41.9,41.9,29.87,South,172,5.0,-999.0,100,0.00,,,0.00,0,WeatherHawk,2014-12-27 11:31:00,
2014-12-27 05:36:00,42.1,42.1,29.86,South,176,5.0,-999.0,100,0.00,,,0.00,1,WeatherHawk,2014-12-27 11:36:00,
2014-12-27 05:41:00,42.3,42.3,29.87,SSW,204,5.0,-999.0,100,0.00,,,0.00,1,WeatherHawk,2014-12-27 11:41:00,
2014-12-27 05:46:00,42.6,42.6,29.87,SE,135,4.0,-999.0,100,0.00,,,0.00,0,WeatherHawk,2014-12-27 11:46:00,
2014-12-27 05:51:00,42.4,42.4,29.87,SSE,154,2.0,-999.0,100,0.00,,,0.00,0,WeatherHawk,2014-12-27 11:51:00,
2014-12-27 05:56:00,42.5,42.5,29.87,South,174,0.0,-999.0,100,0.00,,,0.00,0,WeatherHawk,2014-12-27 11:56:00,
2014-12-27 06:01:00,42.8,42.8,29.88,SSW,206,0.0,-999.0,100,0.00,,,0.00,0,WeatherHawk,2014-12-27 12:01:00,
2014-12-27 06:06:00,43.0,43.0,29.88,South,183,5.0,-999.0,100,0.00,,,0.00,1,WeatherHawk,2014-12-27 12:06:00,
2014-12-27 06:12:00,43.2,43.2,29.88,SE,145,4.0,-999.0,100,0.00,,,0.00,0,WeatherHawk,2014-12-27 12:12:00,
2014-12-27 06:21:00,43.3,43.3,29.87,South,170,3.0,-999.0,100,0.00,,,0.00,0,WeatherHawk,2014-12-27 12:21:00,
2014-12-27 06:26:00,43.6,43.6,29.89,South,187,6.0,-999.0,100,0.00,,,0.00,0,WeatherHawk,2014-12-27 12:26:00,
2014-12-27 06:36:00,43.6,43.6,29.88,SSW,203,4.0,-999.0,100,0.00,,,0.00,0,WeatherHawk,2014-12-27 12:36:00,
2014-12-27 06:47:00,44.0,44.0,29.87,South,186,3.0,-999.0,100,0.04,,,0.04,0,WeatherHawk,2014-12-27 12:47:00,
2014-12-27 06:57:00,44.0,44.0,29.87,SSW,203,1.0,-999.0,100,0.04,,,0.04,0,WeatherHawk,2014-12-27 12:57:00,
2014-12-27 07:06:00,44.5,44.5,29.86,SSW,207,4.0,-999.0,100,0.04,,,0.04,0,WeatherHawk,2014-12-27 13:06:00,
2014-12-27 07:16:00,44.7,44.7,29.88,SSW,210,2.0,-999.0,100,0.04,,,0.04,0,WeatherHawk,2014-12-27 13:16:00,
2014-12-27 07:27:00,44.8,44.8,29.88,West,269,5.0,-999.0,100,0.04,,,0.04,0,WeatherHawk,2014-12-27 13:27:00,
2014-12-27 07:37:00,44.8,44.8,29.88,South,174,2.0,-999.0,100,0.04,,,0.04,0,WeatherHawk,2014-12-27 13:37:00,
2014-12-27 07:47:00,44.6,44.6,29.88,SSW,192,4.0,-999.0,100,0.04,,,0.04,1,WeatherHawk,2014-12-27 13:47:00,
2014-12-27 07:57:00,44.5,44.5,29.87,West,267,4.0,-999.0,100,0.00,,,0.04,4,WeatherHawk,2014-12-27 13:57:00,
2014-12-27 08:06:00,44.4,44.4,29.88,WSW,241,5.0,-999.0,100,0.00,,,0.04,5,WeatherHawk,2014-12-27 14:06:00,
2014-12-27 08:16:00,44.1,44.1,29.88,WSW,258,3.0,-999.0,100,0.00,,,0.04,5,WeatherHawk,2014-12-27 14:16:00,
2014-12-27 08:21:00,44.0,44.0,29.88,WSW,256,5.0,-999.0,100,0.00,,,0.04,3,WeatherHawk,2014-12-27 14:21:00,
2014-12-27 08:26:00,43.6,43.6,29.88,WSW,243,5.0,-999.0,100,0.00,,,0.04,10,WeatherHawk,2014-12-27 14:26:00,
2014-12-27 08:31:00,43.4,43.1,29.88,SW,220,4.0,-999.0,99,0.00,,,0.04,24,WeatherHawk,2014-12-27 14:31:00,
2014-12-27 08:36:00,43.2,42.7,29.87,SSW,199,1.0,-999.0,98,0.00,,,0.04,30,WeatherHawk,2014-12-27 14:36:00,
2014-12-27 08:41:00,43.0,42.2,29.87,SSW,206,3.0,-999.0,97,0.00,,,0.04,25,WeatherHawk,2014-12-27 14:41:00,
2014-12-27 08:46:00,42.7,41.4,29.88,SW,216,5.0,-999.0,95,0.00,,,0.04,19,WeatherHawk,2014-12-27 14:46:00,
2014-12-27 08:51:00,42.5,40.9,29.89,SW,229,5.0,-999.0,94,0.00,,,0.04,18,WeatherHawk,2014-12-27 14:51:00,
2014-12-27 08:56:00,42.2,40.3,29.86,South,174,5.0,-999.0,93,0.00,,,0.04,30,WeatherHawk,2014-12-27 14:56:00,
2014-12-27 09:01:00,42.1,39.9,29.87,SSW,206,2.0,-999.0,92,0.00,,,0.04,35,WeatherHawk,2014-12-27 15:01:00,
2014-12-27 09:06:00,41.7,39.6,29.89,South,184,4.0,-999.0,92,0.00,,,0.04,20,WeatherHawk,2014-12-27 15:06:00,
2014-12-27 09:16:00,41.0,38.9,29.88,SSW,201,7.0,-999.0,92,0.00,,,0.04,16,WeatherHawk,2014-12-27 15:16:00,
2014-12-27 09:22:00,40.6,37.3,29.89,SSW,193,6.0,-999.0,88,0.00,,,0.04,47,WeatherHawk,2014-12-27 15:22:00,
2014-12-27 09:31:00,39.8,34.5,29.90,WSW,250,4.0,-999.0,81,0.00,,,0.04,42,WeatherHawk,2014-12-27 15:31:00,
2014-12-27 09:36:00,39.7,34.0,29.90,West,277,7.0,-999.0,80,0.00,,,0.04,26,WeatherHawk,2014-12-27 15:36:00,
2014-12-27 09:41:00,39.2,33.2,29.89,West,266,11.0,-999.0,79,0.00,,,0.04,21,WeatherHawk,2014-12-27 15:41:00,
2014-12-27 09:46:00,38.9,33.5,29.89,SSE,154,7.0,-999.0,81,0.00,,,0.04,17,WeatherHawk,2014-12-27 15:46:00,
2014-12-27 09:51:00,38.4,33.4,29.90,SSW,193,3.0,-999.0,82,0.00,,,0.04,12,WeatherHawk,2014-12-27 15:51:00,
2014-12-27 09:56:00,37.7,32.7,29.90,SSW,210,10.0,-999.0,82,0.00,,,0.04,13,WeatherHawk,2014-12-27 15:56:00,
2014-12-27 10:06:00,37.7,31.7,29.90,SW,219,5.0,-999.0,79,0.00,,,0.04,90,WeatherHawk,2014-12-27 16:06:00,
2014-12-27 10:16:00,37.4,30.8,29.91,SW,224,5.0,-999.0,77,0.00,,,0.04,32,WeatherHawk,2014-12-27 16:16:00,
2014-12-27 10:21:00,37.2,31.0,29.91,WSW,249,3.0,-999.0,78,0.00,,,0.04,42,WeatherHawk,2014-12-27 16:21:00,
2014-12-27 10:31:00,36.6,29.5,29.90,SSW,202,3.0,-999.0,75,0.00,,,0.04,38,WeatherHawk,2014-12-27 16:31:00,
2014-12-27 10:37:00,36.3,29.2,29.90,WSW,243,6.0,-999.0,75,0.00,,,0.04,60,WeatherHawk,2014-12-27 16:37:00,
2014-12-27 10:42:00,36.2,29.1,29.90,WNW,287,7.0,-999.0,75,0.00,,,0.04,42,WeatherHawk,2014-12-27 16:42:00,
2014-12-27 10:47:00,36.1,29.6,29.90,WSW,250,8.0,-999.0,77,0.00,,,0.04,56,WeatherHawk,2014-12-27 16:47:00,
2014-12-27 10:56:00,36.0,29.5,29.89,SSW,203,6.0,-999.0,77,0.00,,,0.04,30,WeatherHawk,2014-12-27 16:56:00,
2014-12-27 11:01:00,36.1,29.3,29.90,WSW,249,8.0,-999.0,76,0.00,,,0.04,28,WeatherHawk,2014-12-27 17:01:00,
2014-12-27 11:06:00,36.1,29.6,29.91,WSW,244,7.0,-999.0,77,0.00,,,0.04,32,WeatherHawk,2014-12-27 17:06:00,
2014-12-27 11:11:00,36.0,29.5,29.91,SSW,212,6.0,-999.0,77,0.00,,,0.04,31,WeatherHawk,2014-12-27 17:11:00,
2014-12-27 11:16:00,35.9,29.4,29.92,NW,322,4.0,-999.0,77,0.00,,,0.04,25,WeatherHawk,2014-12-27 17:16:00,
2014-12-27 11:22:00,36.0,29.5,29.91,South,189,4.0,-999.0,77,0.00,,,0.04,30,WeatherHawk,2014-12-27 17:22:00,
2014-12-27 11:27:00,35.8,29.3,29.91,West,279,4.0,-999.0,77,0.00,,,0.04,25,WeatherHawk,2014-12-27 17:27:00,
2014-12-27 11:36:00,35.8,29.0,29.91,SSW,197,6.0,-999.0,76,0.00,,,0.04,30,WeatherHawk,2014-12-27 17:36:00,
2014-12-27 11:41:00,35.9,29.1,29.91,South,172,4.0,-999.0,76,0.00,,,0.04,37,WeatherHawk,2014-12-27 17:41:00,
2014-12-27 11:47:00,35.9,29.4,29.90,West,266,3.0,-999.0,77,0.00,,,0.04,31,WeatherHawk,2014-12-27 17:47:00,
2014-12-27 11:52:00,35.9,28.8,29.91,West,273,5.0,-999.0,75,0.00,,,0.04,46,WeatherHawk,2014-12-27 17:52:00,
2014-12-27 11:57:00,35.8,28.0,29.91,West,272,5.0,-999.0,73,0.00,,,0.04,30,WeatherHawk,2014-12-27 17:57:00,
2014-12-27 12:07:00,35.6,27.8,29.91,SW,223,6.0,-999.0,73,0.00,,,0.04,49,WeatherHawk,2014-12-27 18:07:00,
2014-12-27 12:12:00,35.7,28.2,29.91,WNW,298,4.0,-999.0,74,0.00,,,0.04,40,WeatherHawk,2014-12-27 18:12:00,
2014-12-27 12:17:00,35.2,27.4,29.90,SW,221,8.0,-999.0,73,0.00,,,0.04,45,WeatherHawk,2014-12-27 18:17:00,
2014-12-27 12:22:00,35.3,28.2,29.91,SW,225,0.0,-999.0,75,0.00,,,0.04,37,WeatherHawk,2014-12-27 18:22:00,
2014-12-27 12:27:00,34.9,27.2,29.90,SW,233,5.0,-999.0,73,0.00,,,0.04,42,WeatherHawk,2014-12-27 18:27:00,
2014-12-27 12:32:00,34.7,27.2,29.91,West,269,5.0,-999.0,74,0.00,,,0.04,25,WeatherHawk,2014-12-27 18:32:00,
2014-12-27 12:41:00,34.4,27.9,29.91,WSW,247,4.0,-999.0,77,0.00,,,0.04,42,WeatherHawk,2014-12-27 18:41:00,
2014-12-27 12:52:00,34.4,27.9,29.92,SW,226,5.0,-999.0,77,0.00,,,0.04,42,WeatherHawk,2014-12-27 18:52:00,
2014-12-27 13:01:00,34.1,27.7,29.93,WSW,254,5.0,-999.0,77,0.00,,,0.04,39,WeatherHawk,2014-12-27 19:01:00,
2014-12-27 13:07:00,33.8,26.7,29.92,West,273,4.0,-999.0,75,0.00,,,0.04,36,WeatherHawk,2014-12-27 19:07:00,
2014-12-27 13:16:00,33.8,26.7,29.93,WSW,252,2.0,-999.0,75,0.00,,,0.04,38,WeatherHawk,2014-12-27 19:16:00,
2014-12-27 13:21:00,33.4,26.4,29.93,WSW,248,5.0,-999.0,75,0.00,,,0.04,30,WeatherHawk,2014-12-27 19:21:00,
2014-12-27 13:27:00,33.3,26.2,29.93,West,268,4.0,-999.0,75,0.00,,,0.04,20,WeatherHawk,2014-12-27 19:27:00,
2014-12-27 13:32:00,33.3,26.5,29.92,SW,236,6.0,-999.0,76,0.00,,,0.04,36,WeatherHawk,2014-12-27 19:32:00,
2014-12-27 13:41:00,33.3,26.9,29.93,WSW,257,2.0,-999.0,77,0.00,,,0.04,43,WeatherHawk,2014-12-27 19:41:00,
2014-12-27 13:47:00,33.5,26.7,29.94,West,281,7.0,-999.0,76,0.00,,,0.04,45,WeatherHawk,2014-12-27 19:47:00,
2014-12-27 13:52:00,33.5,25.4,29.95,WNW,288,5.0,-999.0,72,0.00,,,0.04,39,WeatherHawk,2014-12-27 19:52:00,
2014-12-27 13:57:00,33.6,25.9,29.95,SSW,212,6.0,-999.0,73,0.00,,,0.04,38,WeatherHawk,2014-12-27 19:57:00,
2014-12-27 14:02:00,33.4,25.4,29.94,WSW,239,3.0,-999.0,72,0.00,,,0.04,34,WeatherHawk,2014-12-27 20:02:00,
2014-12-27 14:07:00,33.4,25.4,29.95,SW,229,1.0,-999.0,72,0.00,,,0.04,66,WeatherHawk,2014-12-27 20:07:00,
2014-12-27 14:12:00,33.2,24.8,29.95,West,275,6.0,-999.0,71,0.00,,,0.04,43,WeatherHawk,2014-12-27 20:12:00,
2014-12-27 14:17:00,33.3,25.2,29.95,SSW,210,6.0,-999.0,72,0.00,,,0.04,23,WeatherHawk,2014-12-27 20:17:00,
2014-12-27 14:22:00,33.1,25.4,29.96,West,259,12.0,-999.0,73,0.00,,,0.04,64,WeatherHawk,2014-12-27 20:22:00,
2014-12-27 14:27:00,33.2,25.5,29.96,West,272,3.0,-999.0,73,0.00,,,0.04,47,WeatherHawk,2014-12-27 20:27:00,
2014-12-27 14:36:00,32.8,25.4,29.97,West,263,7.0,-999.0,74,0.00,,,0.04,34,WeatherHawk,2014-12-27 20:36:00,
2014-12-27 14:42:00,32.7,25.3,29.97,WNW,292,7.0,-999.0,74,0.00,,,0.04,25,WeatherHawk,2014-12-27 20:42:00,
2014-12-27 14:51:00,32.7,25.3,29.97,NW,311,4.0,-999.0,74,0.00,,,0.04,40,WeatherHawk,2014-12-27 20:51:00,
2014-12-27 14:56:00,32.7,25.7,29.98,WSW,249,2.0,-999.0,75,0.00,,,0.04,39,WeatherHawk,2014-12-27 20:56:00,
2014-12-27 15:01:00,32.7,25.3,29.98,SSW,202,1.0,-999.0,74,0.00,,,0.04,20,WeatherHawk,2014-12-27 21:01:00,
2014-12-27 15:06:00,32.6,25.2,29.99,WSW,249,2.0,-999.0,74,0.00,,,0.04,18,WeatherHawk,2014-12-27 21:06:00,
2014-12-27 15:12:00,32.6,24.9,29.99,WSW,241,1.0,-999.0,73,0.00,,,0.04,20,WeatherHawk,2014-12-27 21:12:00,
2014-12-27 15:26:00,32.5,23.5,30.00,SSW,211,6.0,-999.0,69,0.00,,,0.04,16,WeatherHawk,2014-12-27 21:26:00,
2014-12-27 15:31:00,32.4,23.4,30.00,West,265,4.0,-999.0,69,0.00,,,0.04,15,WeatherHawk,2014-12-27 21:31:00,
2014-12-27 15:36:00,32.4,23.3,30.00,NW,313,3.0,-999.0,69,0.00,,,0.04,13,WeatherHawk,2014-12-27 21:36:00,
2014-12-27 15:41:00,32.4,23.4,30.01,SW,224,3.0,-999.0,69,0.00,,,0.04,15,WeatherHawk,2014-12-27 21:41:00,
2014-12-27 15:46:00,32.2,23.2,30.00,SW,225,5.0,-999.0,69,0.00,,,0.04,15,WeatherHawk,2014-12-27 21:46:00,
2014-12-27 15:51:00,32.1,23.1,30.00,SW,225,5.0,-999.0,69,0.00,,,0.04,15,WeatherHawk,2014-12-27 21:51:00,
2014-12-27 15:57:00,32.0,23.3,30.01,West,278,4.0,-999.0,70,0.00,,,0.04,10,WeatherHawk,2014-12-27 21:57:00,
2014-12-27 16:07:00,31.8,23.8,30.01,NNW,330,5.0,-999.0,72,0.00,,,0.04,7,WeatherHawk,2014-12-27 22:07:00,
2014-12-27 16:16:00,31.8,23.9,30.02,NNW,330,5.0,-999.0,72,0.00,,,0.04,4,WeatherHawk,2014-12-27 22:16:00,
2014-12-27 16:21:00,31.8,23.4,30.01,WSW,244,4.0,-999.0,71,0.00,,,0.04,4,WeatherHawk,2014-12-27 22:21:00,
2014-12-27 16:26:00,31.7,23.7,30.02,SW,224,4.0,-999.0,72,0.00,,,0.04,1,WeatherHawk,2014-12-27 22:26:00,
2014-12-27 16:31:00,31.6,23.6,30.03,WNW,285,1.0,-999.0,72,0.00,,,0.04,1,WeatherHawk,2014-12-27 22:31:00,
2014-12-27 16:36:00,31.5,23.9,30.02,SSW,199,2.0,-999.0,73,0.00,,,0.04,0,WeatherHawk,2014-12-27 22:36:00,
2014-12-27 16:41:00,31.5,23.9,30.02,SW,232,1.0,-999.0,73,0.00,,,0.04,0,WeatherHawk,2014-12-27 22:41:00,
2014-12-27 16:56:00,31.4,23.8,30.03,WNW,290,4.0,-999.0,73,0.00,,,0.04,1,WeatherHawk,2014-12-27 22:56:00,
2014-12-27 17:01:00,31.3,24.3,30.03,SW,230,1.0,-999.0,75,0.00,,,0.04,1,WeatherHawk,2014-12-27 23:01:00,
2014-12-27 17:07:00,31.3,24.6,30.03,WSW,242,0.0,-999.0,76,0.00,,,0.04,1,WeatherHawk,2014-12-27 23:07:00,
2014-12-27 17:17:00,31.2,24.2,30.03,West,277,1.0,-999.0,75,0.00,,,0.04,0,WeatherHawk,2014-12-27 23:17:00,
2014-12-27 17:26:00,31.1,24.1,30.03,SW,225,2.0,-999.0,75,0.00,,,0.04,0,WeatherHawk,2014-12-27 23:26:00,
2014-12-27 17:31:00,30.9,24.2,30.04,WSW,238,1.0,-999.0,76,0.00,,,0.04,0,WeatherHawk,2014-12-27 23:31:00,
2014-12-27 17:36:00,30.7,24.7,30.03,NW,306,2.0,-999.0,78,0.00,,,0.04,0,WeatherHawk,2014-12-27 23:36:00,
2014-12-27 17:41:00,30.4,24.1,30.03,West,279,1.0,-999.0,77,0.00,,,0.04,0,WeatherHawk,2014-12-27 23:41:00,
2014-12-27 17:46:00,30.2,24.2,30.04,West,270,3.0,-999.0,78,0.00,,,0.04,0,WeatherHawk,2014-12-27 23:46:00,
2014-12-27 17:52:00,30.2,24.8,30.04,WSW,240,1.0,-999.0,80,0.00,,,0.04,1,WeatherHawk,2014-12-27 23:52:00,
2014-12-27 18:14:00,30.0,24.9,30.04,WSW,251,0.0,-999.0,81,0.00,,,0.04,0,WeatherHawk,2014-12-28 00:14:00,
2014-12-27 18:35:00,30.1,23.5,30.05,NW,311,4.0,-999.0,76,0.00,,,0.04,1,WeatherHawk,2014-12-28 00:35:00,
2014-12-27 19:13:00,29.9,22.6,30.06,WNW,286,1.0,-999.0,74,0.00,,,0.04,1,WeatherHawk,2014-12-28 01:13:00,
2014-12-27 19:24:00,29.7,20.8,30.06,South,190,1.0,-999.0,69,0.00,,,0.04,0,WeatherHawk,2014-12-28 01:24:00,
2014-12-27 19:32:00,29.6,19.7,30.07,East,95,3.0,-999.0,66,0.00,,,0.04,0,WeatherHawk,2014-12-28 01:32:00,
2014-12-27 19:42:00,29.6,18.6,30.07,WSW,257,3.0,-999.0,63,0.00,,,0.04,0,WeatherHawk,2014-12-28 01:42:00,